Terminal Aerodrome Forecast
Issued by NWS Houston/Galveston, TX

Home | Current Version | Previous Version | Text Only | Print | Product List | Glossary On
Versions: 1 2 3 4 5 6 7 8 9 10 11 12 13 14 15 16 17 18 19 20 21 22 23 24 25 26 27 28 29 30 31 32 33 34 35 36 37 38 39 40 41 42
000
FTUS44 KHGX 201724
TAFCLL
TAF
KCLL 201724Z 2018/2118 14006KT P6SM VCTS SCT035CB BKN100
      TEMPO 2018/2020 VRB10G25KT 4SM TSRA BKN030CB OVC090
     FM202000 14008KT P6SM VCTS BKN040CB
      TEMPO 2020/2024 VRB20G30KT 2SM TSRA BKN030CB
     FM210000 VRB08KT P6SM VCTS BKN030CB OVC100
      TEMPO 2100/2103 -TSRA
     FM210300 12006KT P6SM VCSH BKN030 BKN060 OVC250
     FM210900 07004KT 5SM BR BKN015 OVC025
     FM211500 11005KT P6SM BKN020=

USA.gov is the U.S. government's official web portal to all federal, state and local government web resources and services.